Time;durP1;ratioP1;P1;durP2;ratioP2;P2;SDS_P1;SDS_P2;PMS_P1;PMS_P2;Temp;Humidity;BMP_temperature;BMP_pressure;BME280_temperature;BME280_humidity;BME280_pressure;Samples;Min_cycle;Max_cycle;Signal;HPM_P1;HPM_P2
2023/04/13 00:01:47;;;;;;;21.47;10.57;;;;;;;10.17;99.75;99274.59;124147;1099;104220;-79
2023/04/13 00:04:18;;;;;;;20.00;9.70;;;;;;;10.17;100.00;99278.08;124325;1099;104278;-80
2023/04/13 00:06:49;;;;;;;18.17;9.10;;;;;;;10.16;99.60;99275.44;123845;1099;104246;-81
2023/04/13 00:09:20;;;;;;;21.77;11.03;;;;;;;10.17;100.00;99274.59;124126;1098;104345;-79
2023/04/13 00:11:51;;;;;;;23.30;10.20;;;;;;;10.16;99.29;99267.58;124304;1099;104205;-80
2023/04/13 00:14:28;;;;;;;19.97;10.03;;;;;;;10.18;99.68;99260.64;124094;1099;104297;-80
2023/04/13 00:16:59;;;;;;;20.10;9.97;;;;;;;10.16;100.00;99267.58;124478;1099;104239;-81
2023/04/13 00:19:32;;;;;;;21.53;10.30;;;;;;;10.13;100.00;99263.18;124346;1099;104174;-80
2023/04/13 00:22:03;;;;;;;17.77;9.47;;;;;;;10.14;99.98;99264.05;124214;1099;104241;-79
2023/04/13 00:24:37;;;;;;;21.80;10.98;;;;;;;10.14;100.00;99266.67;123937;1099;104223;-80
2023/04/13 00:27:09;;;;;;;21.57;10.00;;;;;;;10.14;99.67;99269.30;124205;1099;104245;-79
2023/04/13 00:29:40;;;;;;;19.97;9.60;;;;;;;10.15;100.00;99268.45;124055;1099;104300;-79
2023/04/13 00:32:13;;;;;;;19.77;10.67;;;;;;;10.14;99.88;99271.91;123999;1099;104259;-79
2023/04/13 00:34:45;;;;;;;21.27;11.43;;;;;;;10.13;99.74;99273.66;124833;1099;104226;-79
2023/04/13 00:37:17;;;;;;;20.10;10.67;;;;;;;10.14;100.00;99269.30;124645;1098;104223;-80
2023/04/13 00:39:49;;;;;;;22.37;12.47;;;;;;;10.13;99.84;99278.91;124343;1099;104274;-80
2023/04/13 00:42:21;;;;;;;20.00;10.93;;;;;;;10.12;100.00;99271.89;124091;1099;104305;-79
2023/04/13 00:44:53;;;;;;;21.50;11.53;;;;;;;10.11;100.00;99275.36;124429;1099;104261;-79
2023/04/13 00:47:28;;;;;;;21.87;11.43;;;;;;;10.10;100.00;99275.33;124471;1099;104236;-79
2023/04/13 00:50:02;;;;;;;23.27;12.03;;;;;;;10.11;99.93;99266.62;123953;1099;104252;-78
2023/04/13 00:52:33;;;;;;;;;;;;;;;10.11;100.00;99269.23;124355;1099;104270;-79
2023/04/13 00:55:06;;;;;;;22.20;11.73;;;;;;;10.13;99.95;99270.14;124063;1099;104376;-79
2023/04/13 00:57:39;;;;;;;22.57;12.03;;;;;;;10.12;99.96;99271.89;124464;1099;104357;-80
2023/04/13 01:00:13;;;;;;;20.65;10.93;;;;;;;10.13;100.00;99268.42;123955;1099;104193;-80
2023/04/13 01:02:43;;;;;;;;;;;;;;;10.11;100.00;99277.97;124335;1099;104392;-79
2023/04/13 01:05:16;;;;;;;22.80;11.73;;;;;;;10.12;100.00;99273.64;124759;1099;104243;-80
2023/04/13 01:08:08;;;;;;;23.03;12.47;;;;;;;10.13;100.00;99267.52;124069;1099;104242;-81
2023/04/13 01:10:51;;;;;;;22.33;12.17;;;;;;;10.11;100.00;99266.62;124102;1099;104306;-79
2023/04/13 01:13:30;;;;;;;22.40;12.00;;;;;;;10.11;100.00;99269.23;124106;1099;104338;-80
2023/04/13 01:16:11;;;;;;;20.80;11.43;;;;;;;10.10;100.00;99267.46;123884;1099;104351;-80
2023/04/13 01:18:44;;;;;;;20.00;11.10;;;;;;;10.07;100.00;99268.31;123940;1099;104249;-79
2023/04/13 01:21:20;;;;;;;;;;;;;;;10.05;100.00;99268.28;124151;1099;104233;-80
2023/04/13 01:24:06;;;;;;;23.22;11.88;;;;;;;10.04;100.00;99263.89;124202;1099;104262;-79
2023/04/13 01:26:50;;;;;;;23.07;11.30;;;;;;;10.03;100.00;99276.96;124150;1099;104306;-80
2023/04/13 01:29:21;;;;;;;20.05;10.75;;;;;;;10.01;100.00;99274.31;124018;1099;104255;-80
2023/04/13 01:31:54;;;;;;;21.20;11.50;;;;;;;9.97;100.00;99267.27;124102;1099;104280;-82
2023/04/13 01:34:26;;;;;;;19.50;10.43;;;;;;;9.95;100.00;99273.33;124055;1099;104779;-81
2023/04/13 01:36:58;;;;;;;22.37;11.90;;;;;;;9.95;100.00;99268.09;124032;1102;104357;-79
2023/04/13 01:39:31;;;;;;;21.10;11.25;;;;;;;9.93;100.00;99272.42;123971;1099;104223;-79
2023/04/13 01:42:08;;;;;;;21.43;11.37;;;;;;;9.92;100.00;99274.14;123940;1099;104162;-80
2023/04/13 01:44:41;;;;;;;21.83;11.73;;;;;;;9.92;100.00;99273.27;123920;1099;104717;-79
2023/04/13 01:47:19;;;;;;;21.07;11.43;;;;;;;9.92;100.00;99274.14;124100;1099;104907;-80
2023/04/13 01:50:16;;;;;;;20.30;10.70;;;;;;;9.89;100.00;99272.38;124076;1099;102147;-79
2023/04/13 01:53:06;;;;;;;23.63;12.60;;;;;;;9.88;100.00;99273.21;123859;1099;104249;-79
2023/04/13 01:55:40;;;;;;;21.37;11.70;;;;;;;9.85;100.00;99267.91;124504;1099;104408;-78
2023/04/13 01:58:14;;;;;;;22.13;11.90;;;;;;;9.83;100.00;99277.49;124453;1099;104664;-80
2023/04/13 02:00:47;;;;;;;19.87;11.63;;;;;;;9.81;100.00;99275.69;123959;1102;104316;-80
2023/04/13 02:03:22;;;;;;;22.30;12.05;;;;;;;9.77;100.00;99276.47;123882;1099;104303;-79
2023/04/13 02:05:51;;;;;;;;;;;;;;;9.75;100.00;99281.68;124347;1099;104261;-80
2023/04/13 02:08:23;;;;;;;22.67;11.70;;;;;;;9.71;100.00;99278.13;123974;1099;104274;-80
2023/04/13 02:10:54;;;;;;;21.77;11.50;;;;;;;9.66;100.00;99277.16;123939;1099;104373;-79
2023/04/13 02:13:25;;;;;;;21.20;10.87;;;;;;;9.63;100.00;99290.20;124284;1098;118956;-80
2023/04/13 02:15:58;;;;;;;20.73;11.20;;;;;;;9.61;100.00;99281.41;124405;1099;104265;-78
2023/04/13 02:18:29;;;;;;;21.17;10.83;;;;;;;9.59;100.00;99293.59;124084;1099;104277;-80
2023/04/13 02:21:08;;;;;;;22.30;11.10;;;;;;;9.57;100.00;99295.31;123997;1099;104194;-78
2023/04/13 02:23:41;;;;;;;20.40;10.50;;;;;;;9.58;100.00;99299.67;124489;1099;104238;-80
2023/04/13 02:26:15;;;;;;;21.70;11.73;;;;;;;9.60;100.00;99299.70;124067;1099;104271;-79
2023/04/13 02:28:46;;;;;;;21.30;12.03;;;;;;;9.60;100.00;99305.84;124024;1102;104357;-79
2023/04/13 02:31:22;;;;;;;20.77;11.73;;;;;;;9.62;100.00;99311.12;123933;1099;104258;-79
2023/04/13 02:33:53;;;;;;;21.80;11.18;;;;;;;9.62;100.00;99313.73;124284;1099;110688;-77
2023/04/13 02:36:26;;;;;;;23.23;12.50;;;;;;;9.62;100.00;99309.38;124274;1099;104251;-78
2023/04/13 02:39:03;;;;;;;24.20;12.67;;;;;;;9.64;100.00;99317.27;124090;1099;104383;-78
2023/04/13 02:41:40;;;;;;;22.22;12.03;;;;;;;9.64;100.00;99312.89;124251;1099;104309;-78
2023/04/13 02:44:12;;;;;;;23.27;12.03;;;;;;;9.64;100.00;99319.88;123898;1099;104988;-78
2023/04/13 02:46:55;;;;;;;21.60;11.30;;;;;;;9.65;100.00;99319.04;124034;1099;104390;-78
2023/04/13 02:49:28;;;;;;;25.13;12.70;;;;;;;9.66;100.00;99310.31;123994;1099;104277;-78
2023/04/13 02:52:16;;;;;;;23.83;12.23;;;;;;;9.65;100.00;99312.05;123969;1099;104294;-79
2023/04/13 02:55:03;;;;;;;23.13;11.37;;;;;;;9.65;100.00;99316.42;123781;1099;104376;-79
2023/04/13 02:57:41;;;;;;;21.13;11.33;;;;;;;9.65;100.00;99321.66;123938;1099;104268;-79
2023/04/13 03:00:15;;;;;;;23.37;12.17;;;;;;;9.66;100.00;99312.92;123936;1099;104303;-79
2023/04/13 03:02:55;;;;;;;23.77;12.93;;;;;;;9.66;100.00;99313.83;123991;1099;104229;-77
2023/04/13 03:05:30;;;;;;;22.50;11.87;;;;;;;9.68;100.00;99325.21;123969;1099;104373;-80
2023/04/13 03:08:00;;;;;;;;;;;;;;;9.68;100.00;99317.36;123850;1099;104307;-79
2023/04/13 03:10:31;;;;;;;23.27;12.13;;;;;;;9.69;100.00;99326.09;124099;1099;102979;-79
2023/04/13 03:13:03;;;;;;;25.67;12.60;;;;;;;9.71;100.00;99322.66;123875;1099;104175;-78
2023/04/13 03:15:34;;;;;;;24.87;11.67;;;;;;;9.75;100.00;99325.34;124193;1099;104227;-79
2023/04/13 03:18:06;;;;;;;23.03;11.90;;;;;;;9.76;100.00;99332.36;124166;1100;104374;-77
2023/04/13 03:20:40;;;;;;;23.47;12.17;;;;;;;9.78;100.00;99335.88;124202;1099;104405;-80
2023/04/13 03:23:11;;;;;;;23.63;11.83;;;;;;;9.79;100.00;99338.53;124150;1099;104337;-79
2023/04/13 03:25:43;;;;;;;23.67;12.27;;;;;;;9.81;100.00;99343.80;123978;1099;104255;-78
2023/04/13 03:28:17;;;;;;;26.57;12.03;;;;;;;9.81;100.00;99343.80;124139;1100;104265;-78
2023/04/13 03:30:49;;;;;;;23.57;12.07;;;;;;;9.82;100.00;99338.59;123889;1099;104358;-79
2023/04/13 03:33:20;;;;;;;26.10;12.00;;;;;;;9.83;100.00;99345.61;123996;1099;104255;-78
2023/04/13 03:35:52;;;;;;;24.23;12.17;;;;;;;9.85;100.00;99351.76;123929;1099;104293;-79
2023/04/13 03:38:28;;;;;;;22.10;11.43;;;;;;;9.89;100.00;99342.21;123898;1099;104342;-79
2023/04/13 03:41:00;;;;;;;23.57;12.50;;;;;;;9.89;100.00;99343.12;123953;1099;104323;-77
2023/04/13 03:43:31;;;;;;;25.20;12.53;;;;;;;9.93;100.00;99349.29;124340;1099;104328;-78
2023/04/13 03:46:08;;;;;;;23.20;12.10;;;;;;;9.97;100.00;99348.52;123775;1099;104239;-76
2023/04/13 03:48:41;;;;;;;26.62;12.98;;;;;;;9.96;100.00;99351.97;123775;1099;104249;-77
2023/04/13 03:51:13;;;;;;;26.40;13.40;;;;;;;9.96;100.00;99356.34;123570;1099;104297;-76
2023/04/13 03:54:04;;;;;;;22.33;12.33;;;;;;;9.94;100.00;99356.31;123678;1098;104239;-76
2023/04/13 03:56:36;;;;;;;24.67;13.00;;;;;;;9.94;100.00;99363.27;123915;1099;104396;-77
2023/04/13 03:59:07;;;;;;;26.20;13.45;;;;;;;9.93;100.00;99362.39;123681;1099;104313;-79
2023/04/13 04:01:39;;;;;;;25.13;13.67;;;;;;;9.94;100.00;99365.89;123721;1099;104239;-77
2023/04/13 04:04:10;;;;;;;25.85;13.65;;;;;;;9.94;100.00;99366.80;123400;1102;104356;-79
2023/04/13 04:06:42;;;;;;;30.33;14.03;;;;;;;9.94;100.00;99372.03;123695;1099;104312;-78
2023/04/13 04:09:16;;;;;;;29.05;13.90;;;;;;;9.95;100.00;99371.16;123660;1100;104344;-78
2023/04/13 04:11:51;;;;;;;28.33;15.00;;;;;;;9.97;100.00;99377.34;123652;1099;104363;-78
2023/04/13 04:14:28;;;;;;;28.97;16.87;;;;;;;9.98;100.00;99375.59;123753;1099;104205;-78
2023/04/13 04:17:08;;;;;;;30.63;17.87;;;;;;;10.02;100.00;99369.53;123674;1099;104313;-78
2023/04/13 04:19:39;;;;;;;28.30;15.50;;;;;;;10.01;100.00;99368.66;123360;1099;104341;-78
2023/04/13 04:22:12;;;;;;;28.73;15.50;;;;;;;10.02;100.00;99369.53;123830;1099;104242;-78
2023/04/13 04:24:44;;;;;;;28.02;16.12;;;;;;;10.04;100.00;99368.72;124072;1099;104322;-75
2023/04/13 04:27:15;;;;;;;28.07;13.60;;;;;;;10.05;100.00;99367.87;123669;1099;104268;-78
2023/04/13 04:29:48;;;;;;;28.87;14.87;;;;;;;10.04;100.00;99368.72;124015;1099;104197;-80
2023/04/13 04:32:27;;;;;;;28.90;15.53;;;;;;;10.07;100.00;99367.91;123963;1099;104238;-79
2023/04/13 04:34:59;;;;;;;28.17;14.63;;;;;;;10.11;100.00;99371.46;123564;1102;104406;-78
2023/04/13 04:37:36;;;;;;;29.33;16.57;;;;;;;10.18;100.00;99371.61;123770;1100;104364;-76
2023/04/13 04:40:13;;;;;;;27.43;15.33;;;;;;;10.25;100.00;99375.22;123963;1099;104303;-77
2023/04/13 04:42:44;;;;;;;26.05;14.68;;;;;;;10.31;100.00;99379.71;123864;1099;104242;-78
2023/04/13 04:45:37;;;;;;;27.83;15.20;;;;;;;10.37;100.00;99388.60;123813;1099;104238;-79
2023/04/13 04:48:10;;;;;;;27.50;15.20;;;;;;;10.41;100.00;99387.81;123878;1099;104321;-76
2023/04/13 04:50:43;;;;;;;30.17;15.73;;;;;;;10.45;100.00;99386.13;123866;1099;104654;-79
2023/04/13 04:53:16;;;;;;;27.53;16.00;;;;;;;10.46;100.00;99390.52;123999;1099;104325;-75
2023/04/13 04:55:48;;;;;;;27.60;16.33;;;;;;;10.46;100.00;99390.52;124035;1099;104385;-77
2023/04/13 04:58:32;;;;;;;31.87;17.67;;;;;;;10.50;100.00;99388.83;123910;1099;104235;-79
2023/04/13 05:01:03;;;;;;;29.97;16.97;;;;;;;10.53;100.00;99395.04;124059;1099;102347;-79
2023/04/13 05:03:35;;;;;;;29.02;16.00;;;;;;;10.59;100.00;99384.63;115311;1099;10001487;-77
2023/04/13 05:06:14;;;;;;;29.25;16.95;;;;;;;10.70;99.81;99392.69;124045;1099;104351;-76
2023/04/13 05:08:49;;;;;;;30.73;17.37;;;;;;;10.77;99.67;99410.31;123848;1102;104264;-76
2023/04/13 05:11:21;;;;;;;31.07;17.17;;;;;;;10.83;99.78;99403.39;124099;1099;104280;-75
2023/04/13 05:13:55;;;;;;;31.13;18.80;;;;;;;10.92;99.62;99407.08;124160;1102;104296;-79
2023/04/13 05:16:30;;;;;;;31.35;18.25;;;;;;;11.02;99.16;99404.61;124639;1099;104200;-80
2023/04/13 05:19:07;;;;;;;32.27;18.23;;;;;;;11.09;99.71;99403.83;124401;1099;104268;-77
2023/04/13 05:22:05;;;;;;;33.87;18.07;;;;;;;11.10;98.81;99409.11;124469;1099;104655;-81
2023/04/13 05:24:41;;;;;;;32.70;18.50;;;;;;;11.13;99.20;99406.53;124705;1103;102583;-77
2023/04/13 05:27:16;;;;;;;31.83;17.57;;;;;;;11.14;99.28;99405.68;124640;1102;104296;-75
2023/04/13 05:29:51;;;;;;;28.80;15.93;;;;;;;11.13;98.12;99406.53;124863;1098;104201;-77
2023/04/13 05:32:25;;;;;;;30.17;16.97;;;;;;;11.14;96.74;99412.66;124659;1099;102501;-78
2023/04/13 05:34:59;;;;;;;31.00;17.40;;;;;;;11.16;97.25;99413.58;124899;1102;102204;-78
2023/04/13 05:37:32;;;;;;;32.23;17.47;;;;;;;11.17;96.87;99411.83;124542;1100;104245;-78
2023/04/13 05:40:13;;;;;;;29.17;16.50;;;;;;;11.15;97.42;99415.30;126100;1099;102837;-81
2023/04/13 05:42:44;;;;;;;33.47;17.87;;;;;;;11.15;97.62;99417.05;126136;1099;102544;-78
2023/04/13 05:45:18;;;;;;;30.02;17.57;;;;;;;11.15;97.96;99410.05;126146;1099;102905;-80
2023/04/13 05:48:11;;;;;;;31.27;18.80;;;;;;;11.12;98.08;99417.88;126128;1099;101886;-81
2023/04/13 05:50:43;;;;;;;32.77;18.43;;;;;;;11.12;97.90;99411.75;126217;1099;101965;-83
2023/04/13 05:53:14;;;;;;;31.93;18.20;;;;;;;11.10;97.66;99410.86;126023;1099;102342;-79
2023/04/13 05:56:00;;;;;;;34.77;18.50;;;;;;;11.06;97.77;99406.41;125611;1099;104197;-77
2023/04/13 05:58:32;;;;;;;28.30;17.33;;;;;;;11.02;97.33;99421.23;126440;1098;102188;-77
2023/04/13 06:01:28;;;;;;;30.53;17.07;;;;;;;10.94;96.75;99417.61;126157;1099;102579;-81
2023/04/13 06:04:02;;;;;;;32.07;17.40;;;;;;;10.89;97.21;99419.25;126148;1099;103348;-79
2023/04/13 06:06:36;;;;;;;27.20;15.70;;;;;;;10.85;96.46;99425.32;126044;1099;102904;-80
2023/04/13 06:09:10;;;;;;;30.57;15.43;;;;;;;10.81;95.93;99420.86;126458;1098;102503;-79
2023/04/13 06:11:42;;;;;;;28.73;15.40;;;;;;;10.76;95.70;99424.28;126391;1098;102634;-81
2023/04/13 06:14:17;;;;;;;26.67;14.20;;;;;;;10.75;96.14;99425.16;125148;1099;104583;-79
2023/04/13 06:16:50;;;;;;;27.57;13.87;;;;;;;10.74;96.16;99428.63;124778;1102;104332;-82
2023/04/13 06:19:22;;;;;;;29.20;15.50;;;;;;;10.74;96.01;99436.50;124779;1099;102364;-80
2023/04/13 06:21:59;;;;;;;27.20;15.13;;;;;;;10.74;96.14;99440.88;125312;1099;104162;-82
2023/04/13 06:24:37;;;;;;;31.47;15.30;;;;;;;10.73;95.88;99444.34;125710;1099;104420;-81
2023/04/13 06:27:10;;;;;;;28.77;15.67;;;;;;;10.73;95.95;99445.21;124959;1102;103074;-77
2023/04/13 06:29:42;;;;;;;28.23;14.57;;;;;;;10.75;96.30;99451.39;124767;1102;103887;-82
2023/04/13 06:32:15;;;;;;;27.80;15.13;;;;;;;10.76;95.56;99450.52;124736;1102;104357;-80
2023/04/13 06:34:48;;;;;;;30.17;15.20;;;;;;;10.76;95.44;99453.14;124757;1099;102295;-80
2023/04/13 06:37:21;;;;;;;28.53;15.00;;;;;;;10.77;95.90;99454.92;124988;1099;104190;-80
2023/04/13 06:39:54;;;;;;;29.13;15.70;;;;;;;10.79;96.01;99461.06;125076;1099;102736;-79
2023/04/13 06:42:26;;;;;;;26.77;13.27;;;;;;;10.81;95.17;99473.34;124840;1099;103758;-80
2023/04/13 06:45:29;;;;;;;24.17;13.67;;;;;;;10.79;95.00;99468.94;124936;1099;102852;-82
2023/04/13 06:48:02;;;;;;;29.10;13.60;;;;;;;10.80;95.07;99469.84;124673;1099;104223;-78
2023/04/13 06:50:36;;;;;;;26.80;14.05;;;;;;;10.79;95.13;99466.31;124750;1102;104252;-80
2023/04/13 06:53:08;;;;;;;24.00;13.43;;;;;;;10.79;94.79;99466.31;124825;1098;104159;-80
2023/04/13 06:55:41;;;;;;;25.55;13.13;;;;;;;10.77;94.37;99470.66;124759;1102;102564;-79
2023/04/13 06:58:16;;;;;;;26.07;13.47;;;;;;;10.77;94.41;99472.42;124828;1102;103654;-79
2023/04/13 07:00:55;;;;;;;;;;;;;;;10.79;93.60;99470.69;126377;1099;103088;-78
2023/04/13 07:03:37;;;;;;;32.20;13.30;;;;;;;10.82;93.71;99477.75;125046;1099;104220;-80
2023/04/13 07:06:19;;;;;;;24.05;12.70;;;;;;;10.85;93.60;99470.80;125785;1102;103044;-74
2023/04/13 07:09:00;;;;;;;27.67;14.30;;;;;;;10.88;94.18;99464.74;125206;1099;103046;-79
2023/04/13 07:11:41;;;;;;;24.50;12.57;;;;;;;10.92;93.57;99471.79;124827;1102;103182;-80
2023/04/13 07:14:12;;;;;;;24.80;13.70;;;;;;;10.95;93.60;99474.47;124857;1102;104092;-80
2023/04/13 07:16:45;;;;;;;28.13;14.17;;;;;;;11.00;93.97;99469.30;124974;1099;104629;-80
2023/04/13 07:19:22;;;;;;;25.67;13.83;;;;;;;11.09;94.21;99474.71;124710;1102;102276;-79
2023/04/13 07:21:54;;;;;;;28.00;14.50;;;;;;;11.17;93.64;99475.72;124823;1099;104239;-80
2023/04/13 07:24:26;;;;;;;26.17;14.50;;;;;;;11.27;93.05;99477.65;124825;1099;102880;-75
2023/04/13 07:26:58;;;;;;;26.27;13.90;;;;;;;11.41;92.98;99485.76;124906;1100;104424;-82
2023/04/13 07:29:29;;;;;;;23.77;13.87;;;;;;;11.55;93.70;99479.84;125009;1099;103453;-79
2023/04/13 07:32:05;;;;;;;30.00;15.00;;;;;;;11.66;93.19;99478.26;125031;1099;104146;-81
2023/04/13 07:34:39;;;;;;;26.48;14.38;;;;;;;11.78;93.50;99475.81;124771;1102;104236;-81
2023/04/13 07:37:13;;;;;;;24.45;12.65;;;;;;;11.85;91.73;99474.14;124851;1100;104342;-81
2023/04/13 07:39:52;;;;;;;26.90;13.50;;;;;;;11.90;91.63;99476.84;124876;1100;103025;-79
2023/04/13 07:42:32;;;;;;;23.17;11.43;;;;;;;11.93;91.59;99482.17;125315;1099;102347;-84
2023/04/13 07:45:04;;;;;;;23.33;11.60;;;;;;;11.98;90.30;99476.13;125027;1102;104224;-81
2023/04/13 07:47:41;;;;;;;23.30;11.50;;;;;;;12.07;90.33;99480.61;124933;1099;104232;-83
2023/04/13 07:50:13;;;;;;;20.77;11.23;;;;;;;12.15;91.06;99492.09;125344;1099;102573;-81
2023/04/13 07:52:48;;;;;;;22.47;12.00;;;;;;;12.20;90.10;99492.16;125068;1099;104243;-81
2023/04/13 07:55:21;;;;;;;22.10;10.50;;;;;;;12.19;87.43;99495.67;125397;1099;102375;-80
2023/04/13 07:57:54;;;;;;;21.83;10.50;;;;;;;12.23;88.59;99492.20;124711;1102;104779;-77
2023/04/13 08:00:26;;;;;;;22.60;9.20;;;;;;;12.22;85.07;99486.06;124562;1099;102663;-76
2023/04/13 08:03:00;;;;;;;18.27;9.20;;;;;;;12.33;86.53;99480.08;124809;1101;104332;-79
2023/04/13 08:05:35;;;;;;;16.90;8.70;;;;;;;12.48;87.20;99484.61;124911;1100;102313;-82
2023/04/13 08:08:07;;;;;;;17.57;8.70;;;;;;;12.62;87.73;99490.04;126091;1102;102884;-80
2023/04/13 08:10:42;;;;;;;16.77;8.37;;;;;;;12.71;85.34;99495.41;126106;1102;102695;-82
2023/04/13 08:13:16;;;;;;;16.53;8.07;;;;;;;12.78;85.70;99484.09;126552;1098;102660;-81
2023/04/13 08:15:51;;;;;;;17.37;8.15;;;;;;;12.82;84.78;99488.50;126171;1099;101834;-79
2023/04/13 08:18:23;;;;;;;19.47;8.10;;;;;;;12.84;84.50;99485.88;125565;1099;103108;-79
2023/04/13 08:20:55;;;;;;;16.67;7.10;;;;;;;12.84;82.43;99497.31;124693;1102;104232;-81
2023/04/13 08:23:28;;;;;;;14.20;7.40;;;;;;;12.93;83.74;99496.50;124661;1102;104275;-79
2023/04/13 08:26:02;;;;;;;17.50;7.47;;;;;;;13.03;82.04;99490.47;124650;1102;104257;-80
2023/04/13 08:28:36;;;;;;;14.73;6.50;;;;;;;13.12;77.98;99485.30;124673;1102;104316;-78
2023/04/13 08:31:11;;;;;;;15.80;8.10;;;;;;;13.29;83.27;99476.64;124842;1099;104194;-78
2023/04/13 08:36:36;;;;;;;16.30;6.73;;;;;;;13.71;82.38;99480.50;124863;1102;102252;-79
2023/04/13 08:39:10;;;;;;;13.67;6.73;;;;;;;13.74;80.09;99477.88;124836;1102;102587;-79
2023/04/13 08:41:47;;;;;;;;;;;;;;;13.71;75.55;99487.53;124921;1099;102916;-80
2023/04/13 08:44:23;;;;;;;14.60;7.27;;;;;;;13.74;79.54;99483.16;125025;1102;102005;-81
2023/04/13 08:46:53;;;;;;;;;;;;;;;13.72;77.42;99478.77;125218;1099;104201;-80
2023/04/13 08:49:34;;;;;;;15.47;7.00;;;;;;;13.71;77.88;99482.26;124922;1099;104181;-80
2023/04/13 08:52:24;;;;;;;17.50;7.50;;;;;;;13.81;79.19;99489.38;124654;1102;120819;-75
2023/04/13 08:54:59;;;;;;;12.63;7.30;;;;;;;13.88;77.49;99491.16;124728;1099;102209;-79
2023/04/13 08:57:37;;;;;;;14.33;7.60;;;;;;;13.85;76.59;99488.50;124913;1102;104173;-79
2023/04/13 09:00:17;;;;;;;14.33;7.20;;;;;;;13.82;76.78;99501.66;125068;1102;104246;-81
2023/04/13 09:02:57;;;;;;;15.07;7.63;;;;;;;13.72;74.41;99503.36;124727;1102;102549;-81
2023/04/13 09:05:30;;;;;;;16.00;7.33;;;;;;;13.65;75.41;99493.66;126081;1102;101967;-79
2023/04/13 09:08:12;;;;;;;14.83;7.00;;;;;;;13.65;76.93;99502.45;126116;1099;102230;-79
2023/04/13 09:10:49;;;;;;;;;;;;;;;13.60;72.85;99500.63;126175;1099;102314;-79
2023/04/13 09:13:26;;;;;;;11.70;6.10;;;;;;;13.67;75.80;99499.82;126111;1099;101996;-81
2023/04/13 09:15:59;;;;;;;13.80;6.90;;;;;;;13.74;77.01;99498.09;126171;1102;102854;-80
2023/04/13 09:18:55;;;;;;;12.13;6.03;;;;;;;13.84;76.86;99497.30;126119;1099;103223;-82
2023/04/13 09:21:42;;;;;;;12.90;6.80;;;;;;;13.99;75.96;99492.13;126130;1099;102401;-80
2023/04/13 09:24:17;;;;;;;11.60;5.90;;;;;;;14.07;70.41;99502.72;126182;1102;102778;-80
2023/04/13 09:26:51;;;;;;;;;;;;;;;13.98;72.40;99500.89;126238;1099;101830;-79
2023/04/13 09:29:28;;;;;;;11.35;5.60;;;;;;;13.97;73.43;99485.94;126357;1099;101413;-81
2023/04/13 09:32:09;;;;;;;12.73;6.30;;;;;;;13.97;73.01;99496.48;126333;1099;102986;-82
2023/04/13 09:34:42;;;;;;;14.13;6.77;;;;;;;14.11;74.20;99491.28;126094;1099;102439;-77
2023/04/13 09:37:22;;;;;;;12.80;6.27;;;;;;;14.21;72.40;99489.59;126070;1099;103069;-81
2023/04/13 09:39:56;;;;;;;13.20;6.35;;;;;;;14.29;70.94;99493.15;126015;1102;102685;-80
2023/04/13 09:42:33;;;;;;;13.20;5.60;;;;;;;14.43;73.78;99484.38;126423;1098;102759;-78
2023/04/13 09:45:14;;;;;;;13.57;5.80;;;;;;;14.62;74.17;99488.90;126532;1098;102881;-82
2023/04/13 09:47:47;;;;;;;12.80;6.07;;;;;;;14.79;72.83;99490.69;126446;1098;102702;-83
2023/04/13 09:50:26;;;;;;;8.87;5.13;;;;;;;14.80;71.95;99500.38;126109;1099;102254;-80
2023/04/13 09:53:04;;;;;;;8.87;5.17;;;;;;;14.74;70.75;99499.50;126146;1099;102199;-78
2023/04/13 09:55:56;;;;;;;9.60;5.23;;;;;;;14.77;69.70;99508.30;126138;1099;102111;-81
2023/04/13 09:58:32;;;;;;;12.47;5.80;;;;;;;14.84;72.11;99491.59;126150;1098;102044;-80
2023/04/13 10:01:06;;;;;;;12.20;6.47;;;;;;;14.95;69.77;99492.49;126103;1099;101969;-79
2023/04/13 10:03:39;;;;;;;11.37;5.77;;;;;;;14.97;68.20;99503.94;126512;1099;102606;-81
2023/04/13 10:06:14;;;;;;;12.47;5.57;;;;;;;15.05;70.64;99507.49;126424;1099;102781;-78
2023/04/13 10:08:46;;;;;;;10.10;5.80;;;;;;;15.09;70.22;99500.45;117638;1098;10001456;-80
2023/04/13 10:11:18;;;;;;;13.37;5.87;;;;;;;15.15;70.37;99503.09;126421;1098;103404;-80
2023/04/13 10:13:56;;;;;;;10.13;5.30;;;;;;;15.22;69.50;99496.05;126063;1099;102673;-79
2023/04/13 10:16:54;;;;;;;11.10;6.00;;;;;;;15.25;69.87;99503.98;126069;1099;102487;-80
2023/04/13 10:19:30;;;;;;;10.90;5.70;;;;;;;15.18;68.76;99508.38;126165;1099;102830;-82
2023/04/13 10:22:03;;;;;;;13.60;6.47;;;;;;;15.06;66.44;99503.95;126151;1098;102625;-79
2023/04/13 10:24:43;;;;;;;13.85;5.62;;;;;;;15.07;69.95;99510.14;126102;1099;102676;-80
2023/04/13 10:27:31;;;;;;;12.40;5.43;;;;;;;15.03;68.14;99517.16;126210;1099;101844;-84
2023/04/13 10:30:25;;;;;;;12.97;6.10;;;;;;;15.13;69.68;99514.53;126536;1099;101849;-82
2023/04/13 10:33:12;;;;;;;12.67;5.47;;;;;;;15.18;69.30;99515.44;126360;1098;102426;-83
2023/04/13 10:36:00;;;;;;;8.37;5.07;;;;;;;15.22;68.53;99518.09;126094;1099;102327;-81
2023/04/13 10:38:44;;;;;;;12.43;5.60;;;;;;;15.09;67.89;99517.17;126158;1099;102064;-77
2023/04/13 10:41:29;;;;;;;10.23;5.53;;;;;;;14.95;67.10;99515.40;126216;1099;102187;-80
2023/04/13 10:44:10;;;;;;;10.88;5.58;;;;;;;14.83;66.60;99519.75;126395;1099;101714;-82
2023/04/13 10:46:52;;;;;;;8.57;4.27;;;;;;;14.84;66.86;99516.23;126827;1099;102160;-82
2023/04/13 10:49:41;;;;;;;9.40;4.97;;;;;;;14.95;68.15;99515.40;126823;1098;102010;-77
2023/04/13 10:52:19;;;;;;;8.67;4.70;;;;;;;15.10;68.20;99510.14;126790;1098;102412;-78
2023/04/13 10:54:57;;;;;;;10.90;5.13;;;;;;;15.06;67.19;99514.52;126455;1099;102435;-79
2023/04/13 10:57:50;;;;;;;9.37;5.03;;;;;;;14.99;65.54;99522.43;126500;1098;101797;-78
2023/04/13 11:00:41;;;;;;;12.00;4.87;;;;;;;14.85;65.47;99523.30;126490;1099;102675;-79
2023/04/13 11:03:15;;;;;;;10.17;4.67;;;;;;;14.88;66.43;99522.40;126399;1099;103742;-80
2023/04/13 11:05:47;;;;;;;13.57;5.73;;;;;;;14.95;67.89;99521.55;117926;1099;10001058;-79
2023/04/13 11:08:26;;;;;;;10.97;5.30;;;;;;;15.01;67.85;99523.34;126396;1099;102129;-76
2023/04/13 11:11:00;;;;;;;9.47;5.30;;;;;;;15.13;65.85;99518.08;126935;1099;102679;-80
2023/04/13 11:13:35;;;;;;;11.63;4.93;;;;;;;15.21;65.58;99512.80;126180;1099;102341;-79
2023/04/13 11:16:07;;;;;;;9.37;4.73;;;;;;;15.38;66.64;99518.97;126173;1100;102411;-78
2023/04/13 11:18:41;;;;;;;9.33;4.70;;;;;;;15.49;65.91;99512.78;126217;1102;102266;-81
2023/04/13 11:21:20;;;;;;;10.50;4.90;;;;;;;15.45;65.25;99518.08;126538;1098;102159;-78
2023/04/13 11:24:03;;;;;;;10.00;5.50;;;;;;;15.44;65.25;99511.05;126645;1098;101841;-82
2023/04/13 11:26:40;;;;;;;8.00;4.27;;;;;;;15.37;64.82;99503.98;127054;1098;102621;-78
2023/04/13 11:29:28;;;;;;;10.03;4.57;;;;;;;15.42;66.50;99502.21;127039;1099;102607;-82
2023/04/13 11:32:02;;;;;;;9.77;4.60;;;;;;;15.38;63.11;99508.40;127107;1099;102022;-81
2023/04/13 11:34:34;;;;;;;5.90;4.22;;;;;;;15.30;65.13;99506.63;125783;1102;102583;-80
2023/04/13 11:37:10;;;;;;;10.50;4.87;;;;;;;15.25;64.85;99511.91;124820;1102;104300;-78
2023/04/13 11:39:42;;;;;;;9.67;4.90;;;;;;;15.27;64.84;99510.16;125169;1099;104331;-80
2023/04/13 11:42:20;;;;;;;10.13;4.47;;;;;;;15.25;63.99;99514.55;124991;1099;102217;-80
2023/04/13 11:44:56;;;;;;;8.80;5.03;;;;;;;15.21;65.25;99518.95;125636;1099;104185;-79
2023/04/13 11:47:32;;;;;;;9.93;4.63;;;;;;;15.20;65.27;99514.54;125152;1099;102447;-77
2023/04/13 11:50:04;;;;;;;10.90;5.20;;;;;;;15.07;64.62;99516.30;125036;1099;102996;-78